createdAt,value
2023-07-23T00:05:15.682Z,3.13
2023-07-23T00:10:35.791Z,3.90
2023-07-23T00:15:56.013Z,4.27
2023-07-23T00:21:16.119Z,4.07
2023-07-23T00:26:36.402Z,3.40
2023-07-23T00:31:56.755Z,4.20
2023-07-23T00:37:16.862Z,3.30
2023-07-23T00:42:37.056Z,3.47
2023-07-23T00:47:57.333Z,3.70
2023-07-23T00:53:17.589Z,4.20
2023-07-23T00:58:37.725Z,3.90
2023-07-23T01:03:58.094Z,3.97
2023-07-23T01:09:18.320Z,3.57
2023-07-23T01:14:38.662Z,3.83
2023-07-23T01:19:58.885Z,4.37
2023-07-23T01:25:19.173Z,3.63
2023-07-23T01:30:39.405Z,3.73
2023-07-23T01:35:59.652Z,3.77
2023-07-23T01:41:19.862Z,4.10
2023-07-23T01:46:40.267Z,4.10
2023-07-23T01:52:00.434Z,4.83
2023-07-23T01:57:20.602Z,4.30
2023-07-23T02:02:40.974Z,4.30
2023-07-23T02:08:01.089Z,4.43
2023-07-23T02:13:21.304Z,4.33
2023-07-23T02:18:41.642Z,3.87
2023-07-23T02:24:01.878Z,4.33
2023-07-23T02:29:22.132Z,4.80
2023-07-23T02:34:42.256Z,4.97
2023-07-23T02:40:02.557Z,4.37
2023-07-23T02:45:22.747Z,4.40
2023-07-23T02:50:42.910Z,4.70
2023-07-23T02:56:03.096Z,4.57
2023-07-23T03:01:23.401Z,4.43
2023-07-23T03:06:43.561Z,5.03
2023-07-23T03:12:03.802Z,5.20
2023-07-23T03:17:24.034Z,5.53
2023-07-23T03:22:44.263Z,4.67
2023-07-23T03:28:04.503Z,4.83
2023-07-23T03:33:24.722Z,4.43
2023-07-23T03:38:45.085Z,4.83
2023-07-23T03:44:05.323Z,5.40
2023-07-23T03:49:25.952Z,4.97
2023-07-23T03:54:46.267Z,5.87
2023-07-23T04:00:06.485Z,5.33
2023-07-23T04:05:26.835Z,4.90
2023-07-23T04:10:47.083Z,5.33
2023-07-23T04:16:07.374Z,5.50
2023-07-23T04:21:27.867Z,4.90
2023-07-23T04:26:47.812Z,5.03
2023-07-23T04:32:07.887Z,5.20
2023-07-23T04:37:28.015Z,5.03
2023-07-23T04:42:48.267Z,5.30
2023-07-23T04:48:08.419Z,5.10
2023-07-23T04:53:28.667Z,5.10
2023-07-23T04:58:48.941Z,5.30
2023-07-23T05:04:09.166Z,5.13
2023-07-23T05:09:29.463Z,5.30
2023-07-23T05:14:49.689Z,4.50
2023-07-23T05:20:09.983Z,6.53
2023-07-23T05:25:30.156Z,5.13
2023-07-23T05:30:50.437Z,5.03
2023-07-23T05:36:10.547Z,4.73
2023-07-23T05:41:31.107Z,5.40
2023-07-23T05:46:51.689Z,4.63
2023-07-23T05:52:11.977Z,4.73
2023-07-23T05:57:32.066Z,5.30
2023-07-23T06:02:52.548Z,4.87
2023-07-23T06:08:12.700Z,4.70
2023-07-23T06:13:32.961Z,4.80
2023-07-23T06:18:54.390Z,3.97
2023-07-23T06:24:15.507Z,3.77
2023-07-23T06:29:35.704Z,3.93
2023-07-23T06:34:55.960Z,3.80
2023-07-23T06:40:16.104Z,3.97
2023-07-23T06:45:36.444Z,4.03
2023-07-23T06:50:56.677Z,3.80
2023-07-23T06:56:16.912Z,4.00
2023-07-23T07:01:37.112Z,3.97
2023-07-23T07:06:57.392Z,3.80
2023-07-23T07:12:17.465Z,3.80
2023-07-23T07:17:37.683Z,3.50
2023-07-23T07:22:57.796Z,3.70
2023-07-23T07:28:17.945Z,3.97
2023-07-23T07:33:38.275Z,3.83
2023-07-23T07:38:58.334Z,4.00
2023-07-23T07:44:18.540Z,3.73
2023-07-23T07:49:38.776Z,3.80
2023-07-23T07:54:59.006Z,3.97
2023-07-23T08:00:19.342Z,3.50
2023-07-23T08:05:39.665Z,3.63
2023-07-23T08:10:59.795Z,3.73
2023-07-23T08:16:20.091Z,3.70
2023-07-23T08:21:40.399Z,4.03
2023-07-23T08:27:00.653Z,3.63
2023-07-23T08:32:20.969Z,3.43
2023-07-23T08:37:40.879Z,3.53
2023-07-23T08:43:01.135Z,3.30
2023-07-23T08:48:21.417Z,3.27
2023-07-23T08:53:41.819Z,3.13
2023-07-23T08:59:02.021Z,3.33
2023-07-23T09:04:22.264Z,3.37
2023-07-23T09:09:42.406Z,3.00
2023-07-23T09:15:02.803Z,3.33
2023-07-23T09:20:23.033Z,3.10
2023-07-23T09:25:43.359Z,3.10
2023-07-23T09:31:03.508Z,3.40
2023-07-23T09:36:23.841Z,3.10
2023-07-23T09:41:43.974Z,3.60
2023-07-23T09:47:04.390Z,2.90
2023-07-23T09:52:24.512Z,3.40
2023-07-23T09:57:44.861Z,3.50
2023-07-23T10:03:07.503Z,3.50
2023-07-23T10:08:28.709Z,3.50
2023-07-23T10:13:48.863Z,3.00
2023-07-23T10:19:09.079Z,3.73
2023-07-23T10:24:29.358Z,2.83
2023-07-23T10:29:49.411Z,2.80
2023-07-23T10:35:09.566Z,2.60
2023-07-23T10:40:29.812Z,3.10
2023-07-23T10:45:49.960Z,3.40
2023-07-23T10:51:10.259Z,3.70
2023-07-23T10:56:30.569Z,3.43
2023-07-23T11:01:50.815Z,3.10
2023-07-23T11:07:10.938Z,3.63
2023-07-23T11:12:31.201Z,3.63
2023-07-23T11:18:04.542Z,3.13
2023-07-23T11:23:25.629Z,3.50
2023-07-23T11:28:45.824Z,2.93
2023-07-23T11:34:06.187Z,3.47
2023-07-23T11:39:26.634Z,2.73
2023-07-23T11:44:46.714Z,2.60
2023-07-23T11:50:06.900Z,2.90
2023-07-23T11:55:27.108Z,2.90
2023-07-23T12:00:47.382Z,3.50
2023-07-23T12:06:07.618Z,2.73
2023-07-23T12:11:28.523Z,2.90
2023-07-23T12:16:48.710Z,2.30
2023-07-23T12:22:08.800Z,2.63
2023-07-23T12:27:29.110Z,2.70
2023-07-23T12:32:49.482Z,3.00
2023-07-23T12:38:09.631Z,3.00
2023-07-23T12:43:29.724Z,2.60
2023-07-23T12:48:49.974Z,2.50
2023-07-23T12:54:10.218Z,3.20
2023-07-23T12:59:30.455Z,2.57
2023-07-23T13:04:50.595Z,2.40
2023-07-23T13:10:10.992Z,2.53
2023-07-23T13:15:31.256Z,1.97
2023-07-23T13:20:51.606Z,2.47
2023-07-23T13:26:11.859Z,1.93
2023-07-23T13:31:32.238Z,2.60
2023-07-23T13:36:52.437Z,2.50
2023-07-23T13:42:12.806Z,2.63
2023-07-23T13:47:33.333Z,2.60
2023-07-23T13:52:53.739Z,2.67
2023-07-23T13:58:13.872Z,3.37
2023-07-23T14:03:34.256Z,2.80
2023-07-23T14:08:54.522Z,2.80
2023-07-23T14:14:14.992Z,3.27
2023-07-23T14:19:34.909Z,3.00
2023-07-23T14:24:55.238Z,2.60
2023-07-23T14:30:15.512Z,2.73
2023-07-23T14:35:35.795Z,2.57
2023-07-23T14:40:59.014Z,2.57
2023-07-23T14:46:19.437Z,2.77
2023-07-23T14:51:39.556Z,3.10
2023-07-23T14:56:59.745Z,3.17
2023-07-23T15:02:19.905Z,3.20
2023-07-23T15:07:40.227Z,2.67
2023-07-23T15:13:00.405Z,3.17
2023-07-23T15:18:20.749Z,2.90
2023-07-23T15:23:41.152Z,2.80
2023-07-23T15:29:01.066Z,2.63
2023-07-23T15:34:21.306Z,3.00
2023-07-23T15:39:41.778Z,3.70
2023-07-23T15:45:02.107Z,3.67
2023-07-23T15:50:22.412Z,3.73
2023-07-23T15:55:42.552Z,4.20
2023-07-23T16:01:02.773Z,4.07
2023-07-23T16:06:22.858Z,3.87
2023-07-23T16:11:43.195Z,4.40
2023-07-23T16:17:03.438Z,4.03
2023-07-23T16:22:23.767Z,3.80
2023-07-23T16:27:44.051Z,4.13
2023-07-23T16:33:04.366Z,4.40
2023-07-23T16:38:24.567Z,4.00
2023-07-23T16:43:44.932Z,4.60
2023-07-23T16:49:05.268Z,3.73
2023-07-23T16:54:26.405Z,4.63
2023-07-23T16:59:46.386Z,3.63
2023-07-23T17:05:07.875Z,3.70
2023-07-23T17:10:28.174Z,3.70
2023-07-23T17:15:48.359Z,3.73
2023-07-23T17:21:08.567Z,3.53
2023-07-23T17:26:29.185Z,3.63
2023-07-23T17:31:49.644Z,3.33
2023-07-23T17:37:10.006Z,3.30
2023-07-23T17:42:30.478Z,3.20
2023-07-23T17:47:50.782Z,2.60
2023-07-23T17:53:11.000Z,2.80
2023-07-23T17:58:31.133Z,3.40
2023-07-23T18:03:51.651Z,2.87
2023-07-23T18:09:11.746Z,2.63
2023-07-23T18:14:32.087Z,1.97
2023-07-23T18:19:52.239Z,2.00
2023-07-23T18:25:12.485Z,1.77
2023-07-23T18:30:32.909Z,1.93
2023-07-23T18:35:53.054Z,1.87
2023-07-23T18:41:13.369Z,1.57
2023-07-23T18:46:34.062Z,2.07
2023-07-23T18:51:54.458Z,2.50
2023-07-23T18:57:14.655Z,2.80
2023-07-23T19:02:35.013Z,2.60
2023-07-23T19:07:55.378Z,2.57
2023-07-23T19:13:15.720Z,2.30
2023-07-23T19:18:36.263Z,2.30
2023-07-23T19:23:56.296Z,2.40
2023-07-23T19:29:16.500Z,2.10
2023-07-23T19:34:36.765Z,1.70
2023-07-23T19:39:57.046Z,2.07
2023-07-23T19:45:17.253Z,2.23
2023-07-23T19:50:37.488Z,2.50
2023-07-23T19:55:57.657Z,2.07
2023-07-23T20:01:17.982Z,2.43
2023-07-23T20:06:38.087Z,2.00
2023-07-23T20:11:58.326Z,1.90
2023-07-23T20:17:18.675Z,2.10
2023-07-23T20:22:38.819Z,2.10
2023-07-23T20:27:58.945Z,2.00
2023-07-23T20:33:19.162Z,2.33
2023-07-23T20:38:39.280Z,2.13
2023-07-23T20:43:59.473Z,2.37
2023-07-23T20:49:19.582Z,2.10
2023-07-23T20:54:39.743Z,3.00
2023-07-23T20:59:59.955Z,2.10
2023-07-23T21:05:20.099Z,2.67
2023-07-23T21:10:40.420Z,2.33
2023-07-23T21:16:00.689Z,1.90
2023-07-23T21:21:20.930Z,2.67
2023-07-23T21:26:41.123Z,2.30
2023-07-23T21:32:01.368Z,2.60
2023-07-23T21:37:21.531Z,2.40
2023-07-23T21:42:41.687Z,2.47
2023-07-23T21:48:01.916Z,2.33
2023-07-23T21:53:22.081Z,2.10
2023-07-23T21:58:42.208Z,2.50
2023-07-23T22:04:02.657Z,2.80
2023-07-23T22:09:22.806Z,2.33
2023-07-23T22:14:42.987Z,2.37
2023-07-23T22:20:03.135Z,2.63
2023-07-23T22:25:23.362Z,2.17
2023-07-23T22:30:43.433Z,3.00
2023-07-23T22:36:03.720Z,2.53
2023-07-23T22:41:24.018Z,2.73
2023-07-23T22:46:44.413Z,2.73
2023-07-23T22:52:04.506Z,2.40
2023-07-23T22:57:24.723Z,2.57
2023-07-23T23:02:44.985Z,2.50
2023-07-23T23:08:05.288Z,2.90
2023-07-23T23:13:25.470Z,2.60
2023-07-23T23:18:45.855Z,3.07
2023-07-23T23:24:06.172Z,2.77
2023-07-23T23:29:26.416Z,2.93
2023-07-23T23:34:46.552Z,3.10
2023-07-23T23:40:06.880Z,3.13
2023-07-23T23:45:27.105Z,2.70
2023-07-23T23:50:47.427Z,2.97
2023-07-23T23:56:07.472Z,3.00
